CheckWX is a tool to help pilots better visualize weather data.  It is not intended as a substitute for an official pre-flight weather briefing.

22:51:24 UTC

LFRO TAF
Lannion-Côte de Granit Airport
Lannion, France
TAF LFRO 231700Z 2318/2418 02009KT CAVOK BECMG 2322/2324 5000 SCT005 TEMPO 2400/2406 BKN003 BECMG 2406/2409 SCT004 SCT046 BECMG 2410/2412 03012KT

Mar-23@
18:00 UTC

Mar-23 @ 18:00 UTC

Mar-23@
22:00 UTC

Mar-23 @ 22:00 UTC

TAF LFRO 231700Z 2318/2418 02009KT CAVOK

Expired

Wind
  • 020° at 9 KTS
Conditions
No significant weather
Cloud Levels
  • No significant clouds

Mar-23@
22:00 UTC

Mar-23 @ 22:00 UTC

Mar-24@
06:00 UTC

Mar-24 @ 06:00 UTC

BECMG 2322/2324 5000 SCT005

Becoming

Becoming Conditions expected by Sun, Mar 24, 2019 @ 00:00 UTC

Wind
  • 020° at 9 KTS
Conditions
No significant weather
Cloud Levels
  • Scattered at 500' AGL

Mar-24@
00:00 UTC

Mar-24 @ 00:00 UTC

Mar-24@
06:00 UTC

Mar-24 @ 06:00 UTC

TEMPO 2400/2406 BKN003

Temporary

Temporary Changes expected for less than half the time period

Cloud Levels
  • Broken at 300' AGL

Mar-24@
06:00 UTC

Mar-24 @ 06:00 UTC

Mar-24@
10:00 UTC

Mar-24 @ 10:00 UTC

BECMG 2406/2409 SCT004 SCT046

Becoming

Becoming Conditions expected by Sun, Mar 24, 2019 @ 09:00 UTC

Wind
  • 020° at 9 KTS
Conditions
No significant weather
Cloud Levels
  • Scattered at 400' AGL
  • Scattered at 4,600' AGL

Mar-24@
10:00 UTC

Mar-24 @ 10:00 UTC

Mar-24@
18:00 UTC

Mar-24 @ 18:00 UTC

BECMG 2410/2412 03012KT

Becoming

Becoming Conditions expected by Sun, Mar 24, 2019 @ 12:00 UTC

Wind
  • 030° at 12 KTS
Conditions
No significant weather
Cloud Levels
  • Scattered at 400' AGL
  • Scattered at 4,600' AGL